ENBR/BGO METAR and TAF weather

Enter ICAO airport designator
Station Type Date Time Source
ENBR METAR 2019/10/21 04:50 UTC NOAA

ENBR 210450Z 11003KT 9999 MIFG FEW035 02/02 Q1019 NOSIG RMK WIND 1200FT 35009KT


Station Type Date Time Source
ENBR Decoded METAR 2019/10/21 04:50 UTC NOAA

Bergen / Flesland, Norway (ENBR) 60-17N 005-14E 50M
Oct 21, 2019 - 12:50 AM EDT / 2019.10.21 0450 UTC
Wind: from the ESE (110 degrees) at 3 MPH (3 KT):0
Visibility: greater than 7 mile(s):0
Sky conditions: mostly clear
Weather: shallow fog
Temperature: 35 F (2 C)
Dew Point: 35 F (2 C)
Relative Humidity: 100%
Pressure (altimeter): 30.09 in. Hg (1019 hPa)
ob: ENBR 210450Z 11003KT 9999 MIFG FEW035 02/02 Q1019 NOSIG RMK WIND 1200FT 35009KT
cycle: 5

Station Type Date Time Source
ENBR TAF 2019/10/20 18:57 UTC NOAA

TAF ENBR 201700Z 2018/2118 VRB05KT 9999 FEW020 SCT050 PROB30 2021/2107 0500 FG VV002
BECMG 2116/2118 18010KT

Example: see airport list